Time;durP1;ratioP1;P1;durP2;ratioP2;P2;SDS_P1;SDS_P2;PMS_P1;PMS_P2;Temp;Humidity;BMP_temperature;BMP_pressure;BME280_temperature;BME280_humidity;BME280_pressure;Samples;Min_cycle;Max_cycle;Signal;HPM_P1;HPM_P2
2021/05/27 00:01:17;;;;;;;10.10;9.10;;;;;;;17.63;69.02;101345.03;5000327;28;102817;-68
2021/05/27 00:03:43;;;;;;;16.00;9.23;;;;;;;17.62;68.57;101346.19;4996236;28;102471;-68
2021/05/27 00:06:10;;;;;;;10.88;9.88;;;;;;;17.62;68.96;101346.19;4997057;28;102540;-68
2021/05/27 00:08:37;;;;;;;9.82;8.82;;;;;;;17.62;68.94;101347.00;5000085;28;103919;-68
2021/05/27 00:11:03;;;;;;;9.00;8.20;;;;;;;17.62;68.78;101337.91;5001090;28;102615;-68
2021/05/27 00:13:31;;;;;;;8.70;7.90;;;;;;;17.61;68.84;101339.84;4992480;28;102480;-68
2021/05/27 00:15:58;;;;;;;9.73;8.88;;;;;;;17.61;69.31;101333.53;4987770;28;102477;-68
2021/05/27 00:18:29;;;;;;;9.00;8.20;;;;;;;17.61;69.17;101339.84;4995188;28;102762;-68
2021/05/27 00:20:55;;;;;;;9.75;8.95;;;;;;;17.61;68.56;101347.31;5002915;28;102167;-67
2021/05/27 00:23:22;;;;;;;9.30;8.45;;;;;;;17.61;69.22;101341.78;5001023;28;102867;-68
2021/05/27 00:25:48;;;;;;;8.90;8.20;;;;;;;17.61;69.14;101344.56;4992759;28;102547;-68
2021/05/27 00:28:15;;;;;;;8.60;7.90;;;;;;;17.60;68.54;101343.75;4993458;28;103143;-68
2021/05/27 00:30:42;;;;;;;9.55;8.63;;;;;;;17.61;68.83;101347.31;4987121;28;102640;-68
2021/05/27 00:33:08;;;;;;;9.40;8.52;;;;;;;17.61;68.66;101336.28;5002098;28;102662;-68
2021/05/27 00:35:35;;;;;;;9.45;8.65;;;;;;;17.60;68.94;101329.97;5001134;28;102200;-68
2021/05/27 00:38:01;;;;;;;9.13;8.32;;;;;;;17.62;68.66;101337.91;4987359;28;103710;-68
2021/05/27 00:40:28;;;;;;;8.93;8.15;;;;;;;17.60;69.11;101334.63;4994643;28;102072;-68
2021/05/27 00:42:54;;;;;;;8.27;7.43;;;;;;;17.59;68.61;101336.59;4995054;28;102728;-68
2021/05/27 00:45:21;;;;;;;8.40;7.60;;;;;;;17.59;69.19;101327.50;5004130;28;102247;-68
2021/05/27 00:47:48;;;;;;;8.65;7.95;;;;;;;17.59;69.03;101322.00;4996864;28;103937;-68
2021/05/27 00:50:23;;;;;;;9.60;8.70;;;;;;;17.59;68.89;101322.81;4991712;28;102155;-68
2021/05/27 00:52:51;;;;;;;8.77;7.97;;;;;;;17.58;68.91;101320.38;4969020;28;102456;-68
2021/05/27 00:55:19;;;;;;;8.00;7.30;;;;;;;17.59;68.82;101322.00;4982082;28;102346;-67
2021/05/27 00:57:46;;;;;;;7.90;7.20;;;;;;;17.58;68.75;101318.44;4996751;28;104200;-68
2021/05/27 01:00:16;;;;;;;8.38;7.65;;;;;;;17.58;69.22;101317.63;4994220;28;102363;-68
2021/05/27 01:02:43;;;;;;;8.40;7.70;;;;;;;17.59;68.87;101322.00;5001194;28;102799;-68
2021/05/27 01:05:12;;;;;;;7.30;6.70;;;;;;;17.57;68.85;101316.00;4990479;28;102916;-68
2021/05/27 01:07:39;;;;;;;8.55;7.75;;;;;;;17.58;68.91;101320.38;5004771;28;103850;-68
2021/05/27 01:10:08;;;;;;;8.43;7.63;;;;;;;17.57;68.70;101318.75;4987297;28;102801;-68
2021/05/27 01:12:35;;;;;;;;;;;;;;;17.57;68.68;101316.81;4994965;28;102626;-68
2021/05/27 01:17:49;;;;;;;7.90;7.20;;;;;;;17.58;68.78;101309.38;5001111;28;103924;-68
2021/05/27 01:20:16;;;;;;;8.20;7.40;;;;;;;17.58;69.01;101312.13;4998571;28;107596;-68
2021/05/27 01:22:44;;;;;;;7.53;6.82;;;;;;;17.58;68.62;101312.13;4995118;28;102153;-68
2021/05/27 01:25:12;;;;;;;7.43;6.83;;;;;;;17.57;69.05;101307.75;4999173;28;102792;-68
2021/05/27 01:27:41;;;;;;;7.00;6.40;;;;;;;17.57;68.86;101307.75;4993481;28;103873;-68
2021/05/27 01:30:10;;;;;;;6.45;5.95;;;;;;;17.58;69.25;101312.13;5004078;28;103387;-69
2021/05/27 01:32:37;;;;;;;;;;;;;;;17.56;68.98;101315.16;5001935;28;102511;-68
2021/05/27 01:35:06;;;;;;;7.15;6.45;;;;;;;17.56;68.91;101311.59;4988599;28;102289;-68
2021/05/27 01:37:36;;;;;;;7.20;6.57;;;;;;;17.56;69.15;101314.34;4996130;28;104139;-68
2021/05/27 01:40:04;;;;;;;7.15;6.55;;;;;;;17.56;68.70;101317.91;4986578;28;102517;-68
2021/05/27 01:42:31;;;;;;;7.00;6.47;;;;;;;17.55;68.76;101316.28;4983839;28;102558;-68
2021/05/27 01:44:58;;;;;;;7.32;6.72;;;;;;;17.54;69.21;101315.47;5003368;28;102295;-68
2021/05/27 01:47:25;;;;;;;6.82;6.30;;;;;;;17.56;68.91;101317.09;4995116;28;102775;-68
2021/05/27 01:49:51;;;;;;;7.25;6.60;;;;;;;17.55;69.22;101316.28;5003628;28;102400;-68
2021/05/27 01:52:18;;;;;;;7.28;6.68;;;;;;;17.56;69.04;101315.16;4997982;28;102123;-68
2021/05/27 01:54:45;;;;;;;7.22;6.53;;;;;;;17.55;68.74;101305.28;4983387;28;102462;-68
2021/05/27 01:57:12;;;;;;;7.15;6.55;;;;;;;17.55;68.81;101302.53;4995919;28;103698;-68
2021/05/27 01:59:39;;;;;;;7.03;6.43;;;;;;;17.56;68.95;101311.59;5000372;28;102367;-68
2021/05/27 02:02:06;;;;;;;6.78;6.18;;;;;;;17.56;68.84;101311.59;5003629;28;102399;-68
2021/05/27 02:04:32;;;;;;;7.07;6.47;;;;;;;17.54;68.72;101307.22;4991950;28;102243;-68
2021/05/27 02:07:08;;;;;;;7.38;6.78;;;;;;;17.55;69.38;101313.53;4990835;28;103621;-68
2021/05/27 02:09:34;;;;;;;7.38;6.78;;;;;;;17.56;69.23;101317.09;4998248;28;102822;-68
2021/05/27 02:12:00;;;;;;;6.55;5.97;;;;;;;17.56;68.52;101311.59;4979654;28;102639;-68
2021/05/27 02:14:28;;;;;;;7.47;6.78;;;;;;;17.55;69.00;101313.53;4999782;28;102791;-68
2021/05/27 02:16:56;;;;;;;7.13;6.53;;;;;;;17.54;68.56;101311.91;5002479;28;104162;-68
2021/05/27 02:19:23;;;;;;;6.97;6.43;;;;;;;17.54;68.86;101315.47;5003385;28;102498;-69
2021/05/27 02:21:50;;;;;;;7.43;6.82;;;;;;;17.54;68.57;101317.41;5002374;28;102752;-68
2021/05/27 02:24:17;;;;;;;6.65;6.10;;;;;;;17.53;68.99;101322.13;5004102;28;102209;-68
2021/05/27 02:26:45;;;;;;;7.13;6.43;;;;;;;17.53;68.99;101315.81;5004008;28;103928;-67
2021/05/27 02:29:12;;;;;;;6.55;6.00;;;;;;;17.53;68.52;101318.56;5007748;28;102252;-68
2021/05/27 02:31:43;;;;;;;6.13;5.63;;;;;;;17.53;68.40;101322.13;5002273;28;102627;-68
2021/05/27 02:34:11;;;;;;;6.25;5.72;;;;;;;17.53;68.99;101330.38;5000444;28;102588;-68
2021/05/27 02:36:37;;;;;;;6.82;6.22;;;;;;;17.54;69.05;101325.69;5005132;28;103999;-69
2021/05/27 02:39:06;;;;;;;6.85;6.35;;;;;;;17.54;68.77;101325.69;5010703;28;102753;-68
2021/05/27 02:41:32;;;;;;;6.85;6.25;;;;;;;17.53;68.55;101321.31;5011286;28;104115;-68
2021/05/27 02:43:59;;;;;;;7.38;6.68;;;;;;;17.53;68.84;101319.38;5009704;28;102316;-68
2021/05/27 02:46:26;;;;;;;7.03;6.40;;;;;;;17.53;68.77;101324.88;5000525;28;103934;-68
2021/05/27 02:48:53;;;;;;;6.97;6.38;;;;;;;17.53;68.65;101322.13;4998752;28;102697;-68
2021/05/27 02:51:20;;;;;;;6.78;6.15;;;;;;;17.53;68.47;101333.13;5002617;28;102351;-68
2021/05/27 02:53:47;;;;;;;6.60;6.00;;;;;;;17.53;68.72;101327.63;5003052;28;102848;-68
2021/05/27 02:56:13;;;;;;;7.40;5.85;;;;;;;17.53;68.88;101330.38;4994918;28;104120;-68
2021/05/27 02:58:40;;;;;;;7.32;6.63;;;;;;;17.53;68.91;101319.38;4985619;28;102581;-68
2021/05/27 03:01:07;;;;;;;7.13;6.43;;;;;;;17.53;68.96;101335.88;4998969;28;102140;-68
2021/05/27 03:03:33;;;;;;;7.88;6.97;;;;;;;17.53;68.70;101326.81;5007596;28;102070;-68
2021/05/27 03:06:01;;;;;;;8.15;7.35;;;;;;;17.53;68.69;101324.88;4990075;28;102687;-68
2021/05/27 03:08:28;;;;;;;7.70;6.75;;;;;;;17.53;68.64;101319.38;4998475;28;102073;-68
2021/05/27 03:10:57;;;;;;;8.38;7.57;;;;;;;17.53;68.52;101315.81;4995528;28;102040;-68
2021/05/27 03:13:24;;;;;;;7.40;6.75;;;;;;;17.53;68.89;101319.38;5004357;28;102410;-68
2021/05/27 03:15:50;;;;;;;7.20;6.50;;;;;;;17.54;68.58;101320.19;4996010;28;103990;-68
2021/05/27 03:18:17;;;;;;;7.60;6.28;;;;;;;17.53;68.27;101321.31;4991276;28;102221;-68
2021/05/27 03:20:44;;;;;;;7.57;6.85;;;;;;;17.53;68.76;101318.56;5005490;28;102681;-68
2021/05/27 03:23:13;;;;;;;7.55;6.85;;;;;;;17.53;69.02;101313.84;4989205;28;102358;-68
2021/05/27 03:25:40;;;;;;;;;;;;;;;17.53;68.71;101316.63;4998386;28;103882;-67
2021/05/27 03:28:07;;;;;;;7.07;6.45;;;;;;;17.53;68.95;101313.84;4999326;28;102592;-68
2021/05/27 03:30:34;;;;;;;7.60;6.93;;;;;;;17.53;69.00;101313.84;5001622;28;102542;-68
2021/05/27 03:33:00;;;;;;;7.22;6.50;;;;;;;17.53;69.09;101313.84;5004656;28;102404;-67
2021/05/27 03:35:27;;;;;;;6.35;5.85;;;;;;;17.53;68.84;101313.84;4996006;28;103884;-68
2021/05/27 03:37:54;;;;;;;7.10;5.72;;;;;;;17.53;69.21;101313.84;4994969;28;102476;-68
2021/05/27 03:40:21;;;;;;;9.52;5.53;;;;;;;17.53;68.98;101313.06;4993573;28;102625;-68
2021/05/27 03:42:49;;;;;;;6.43;5.90;;;;;;;17.53;69.25;101304.78;5003286;28;102698;-68
2021/05/27 03:45:20;;;;;;;6.53;5.95;;;;;;;17.52;68.81;101306.69;4984093;28;103549;-68
2021/05/27 03:47:48;;;;;;;6.40;5.80;;;;;;;17.53;69.12;101302.84;4999798;28;102213;-68
2021/05/27 03:50:17;;;;;;;9.38;6.25;;;;;;;17.53;68.65;101305.59;4992027;28;102216;-68
2021/05/27 03:52:44;;;;;;;6.30;5.75;;;;;;;17.53;68.83;101308.34;5003124;28;102232;-67
2021/05/27 03:55:12;;;;;;;6.53;5.95;;;;;;;17.54;69.09;101304.47;4985867;28;103917;-68
2021/05/27 03:57:40;;;;;;;6.40;5.80;;;;;;;17.53;68.98;101308.34;4995020;28;102306;-67
2021/05/27 04:02:57;;;;;;;6.38;5.85;;;;;;;17.56;68.97;101311.59;5003134;28;102578;-67
2021/05/27 04:08:09;;;;;;;6.95;5.90;;;;;;;17.57;69.18;101302.25;4997192;28;102348;-67
2021/05/27 04:10:36;;;;;;;6.47;5.95;;;;;;;17.59;69.43;101297.25;4994283;28;102527;-67
2021/05/27 04:13:03;;;;;;;6.00;5.50;;;;;;;17.59;68.97;101300.00;5004818;28;105709;-67
2021/05/27 04:15:33;;;;;;;6.93;6.22;;;;;;;17.60;69.45;101296.09;5000484;28;103913;-67
2021/05/27 04:18:04;;;;;;;6.05;5.55;;;;;;;17.61;69.45;101297.75;5004931;28;102601;-67
2021/05/27 04:20:33;;;;;;;5.82;5.32;;;;;;;17.62;69.18;101294.69;4998328;28;102623;-67
2021/05/27 04:23:01;;;;;;;6.37;5.53;;;;;;;17.64;69.52;101297.16;4993112;28;102820;-67
2021/05/27 04:25:28;;;;;;;5.32;4.88;;;;;;;17.63;69.27;101290.00;4993591;28;104247;-67
2021/05/27 04:27:56;;;;;;;6.03;5.45;;;;;;;17.63;69.41;101290.81;4990044;28;102444;-67
2021/05/27 04:30:25;;;;;;;6.40;5.88;;;;;;;17.63;69.59;101284.50;4988084;28;102397;-68
2021/05/27 04:35:34;;;;;;;5.57;5.13;;;;;;;17.64;69.40;101289.72;4997647;28;104471;-67
2021/05/27 04:38:04;;;;;;;6.07;5.57;;;;;;;17.65;69.36;101296.03;4997070;28;102355;-68
2021/05/27 04:40:32;;;;;;;6.07;5.47;;;;;;;17.64;69.71;101295.22;5003925;28;102403;-68
2021/05/27 04:42:59;;;;;;;6.00;5.40;;;;;;;17.66;69.00;101292.97;4974397;28;102959;-68
2021/05/27 04:45:27;;;;;;;5.82;5.22;;;;;;;17.68;69.39;101292.66;4989345;28;104351;-67
2021/05/27 04:47:54;;;;;;;5.72;5.22;;;;;;;17.70;69.15;101291.22;4998509;28;102588;-67
2021/05/27 04:50:21;;;;;;;6.07;5.18;;;;;;;17.72;69.34;101299.19;4994669;28;102389;-68
2021/05/27 04:52:49;;;;;;;5.95;5.35;;;;;;;17.75;69.34;101298.59;5000076;28;102248;-68
2021/05/27 04:55:16;;;;;;;5.90;5.40;;;;;;;17.77;69.09;101290.84;4994448;28;103887;-68
2021/05/27 04:57:43;;;;;;;6.35;5.45;;;;;;;17.77;69.54;101297.16;4997219;28;102497;-68
2021/05/27 05:00:12;;;;;;;6.30;5.57;;;;;;;17.79;69.13;101304.31;4988522;28;102553;-67
2021/05/27 05:02:40;;;;;;;5.43;4.97;;;;;;;17.79;69.75;101302.38;5000907;28;102594;-67
2021/05/27 05:05:09;;;;;;;5.28;4.88;;;;;;;17.81;69.15;101297.38;4998366;28;103352;-67
2021/05/27 05:07:37;;;;;;;4.95;4.47;;;;;;;17.83;69.06;101295.16;5003584;28;102713;-67
2021/05/27 05:10:05;;;;;;;5.33;4.67;;;;;;;17.92;68.79;101293.31;4987672;28;102374;-68
2021/05/27 05:12:44;;;;;;;6.68;4.88;;;;;;;17.94;68.95;101293.81;5001120;28;102496;-68
2021/05/27 05:15:15;;;;;;;4.72;4.32;;;;;;;17.94;68.84;101291.06;4994707;28;104468;-67
2021/05/27 05:17:45;;;;;;;5.15;4.43;;;;;;;17.96;68.80;101299.03;5003504;28;102609;-68
2021/05/27 05:20:12;;;;;;;5.25;4.57;;;;;;;17.99;68.53;101298.38;4992929;28;102520;-68
2021/05/27 05:22:39;;;;;;;5.10;4.60;;;;;;;18.15;68.52;101296.97;4982288;28;102895;-68
2021/05/27 05:25:07;;;;;;;6.03;5.10;;;;;;;18.33;69.09;101292.44;4969977;28;103773;-68
2021/05/27 05:27:33;;;;;;;6.13;5.53;;;;;;;18.47;70.08;101295.16;4992143;28;102034;-69
2021/05/27 05:30:03;;;;;;;7.55;6.03;;;;;;;18.68;70.58;101295.47;4999123;28;102557;-69
2021/05/27 05:32:29;;;;;;;8.30;6.22;;;;;;;18.69;70.64;101291.63;4993333;28;102173;-69
2021/05/27 05:34:58;;;;;;;6.43;5.82;;;;;;;18.61;70.76;101289.59;4992465;28;103974;-69
2021/05/27 05:37:28;;;;;;;7.00;6.32;;;;;;;18.63;70.11;101290.09;5005438;28;105612;-69
2021/05/27 05:39:55;;;;;;;9.20;6.85;;;;;;;18.67;69.96;101285.59;4992624;28;102567;-69
2021/05/27 05:42:21;;;;;;;7.75;6.97;;;;;;;18.70;69.98;101299.56;5002497;28;103357;-69
2021/05/27 05:44:48;;;;;;;10.00;7.28;;;;;;;18.75;68.84;101298.66;5000013;28;105520;-69
2021/05/27 05:47:15;;;;;;;10.70;7.68;;;;;;;18.82;68.81;101287.19;5001003;28;102929;-69
2021/05/27 05:49:42;;;;;;;8.05;7.22;;;;;;;18.83;68.73;101281.38;4999971;28;102530;-69
2021/05/27 05:52:09;;;;;;;8.68;7.80;;;;;;;18.89;69.17;101288.38;4990201;28;102328;-68
2021/05/27 05:54:36;;;;;;;12.98;8.07;;;;;;;19.01;68.42;101278.75;4994762;28;104421;-68
2021/05/27 05:57:02;;;;;;;12.38;8.05;;;;;;;19.06;68.18;101276.66;4994948;28;102530;-68
2021/05/27 05:59:29;;;;;;;9.48;8.43;;;;;;;19.08;68.14;101279.13;4994812;28;102716;-68
2021/05/27 06:01:56;;;;;;;9.65;8.55;;;;;;;19.08;68.39;101284.63;4997244;28;102673;-68
2021/05/27 06:04:22;;;;;;;12.57;8.73;;;;;;;19.07;67.99;101282.97;4996227;28;104047;-68
2021/05/27 06:06:51;;;;;;;12.55;8.73;;;;;;;19.14;68.21;101278.66;4995209;28;102333;-68
2021/05/27 06:09:19;;;;;;;9.90;8.93;;;;;;;19.23;67.84;101280.66;4993457;28;104202;-68
2021/05/27 06:11:46;;;;;;;13.18;9.80;;;;;;;19.25;67.60;101283.91;4995848;28;102375;-69
2021/05/27 06:14:12;;;;;;;11.07;9.85;;;;;;;19.26;66.69;101285.53;4995901;28;102714;-68
2021/05/27 06:16:39;;;;;;;13.73;9.20;;;;;;;19.35;65.90;101287.22;4990442;28;102791;-68
2021/05/27 06:19:06;;;;;;;12.45;9.20;;;;;;;19.31;65.63;101283.47;4999553;28;104377;-68
2021/05/27 06:21:32;;;;;;;12.45;8.75;;;;;;;19.48;64.66;101292.97;4978622;28;103358;-68
2021/05/27 06:24:00;;;;;;;15.27;9.13;;;;;;;19.47;64.14;101285.81;4993476;28;103715;-68
2021/05/27 06:26:27;;;;;;;9.90;8.32;;;;;;;19.50;64.63;101287.94;4999325;28;102424;-68
2021/05/27 06:28:54;;;;;;;9.77;8.77;;;;;;;19.45;65.23;101292.47;4993885;28;102293;-70
2021/05/27 06:31:23;;;;;;;11.93;7.90;;;;;;;19.48;65.19;101284.69;4989673;28;102556;-68
2021/05/27 06:33:50;;;;;;;9.25;8.30;;;;;;;19.59;65.40;101288.81;4995830;28;103912;-68
2021/05/27 06:36:17;;;;;;;8.73;7.82;;;;;;;19.70;65.43;101284.66;4988239;28;102757;-68
2021/05/27 06:38:44;;;;;;;12.57;9.30;;;;;;;19.77;65.06;101285.00;4991844;28;104595;-68
2021/05/27 06:41:11;;;;;;;9.98;8.35;;;;;;;19.76;65.23;101283.34;4990417;28;102751;-68
2021/05/27 06:43:38;;;;;;;8.82;7.88;;;;;;;19.55;64.80;101280.34;4993968;28;103902;-68
2021/05/27 06:46:05;;;;;;;8.23;7.43;;;;;;;19.50;63.96;101279.66;4999581;28;102548;-68
2021/05/27 06:48:31;;;;;;;8.85;7.30;;;;;;;19.48;63.52;101291.03;4986147;28;103081;-68
2021/05/27 06:50:58;;;;;;;7.80;6.82;;;;;;;19.38;63.37;101283.81;5001350;28;103971;-69
2021/05/27 06:53:24;;;;;;;7.18;6.45;;;;;;;19.37;62.68;101287.72;5000951;28;103862;-69
2021/05/27 06:55:51;;;;;;;9.30;7.10;;;;;;;19.30;63.03;101281.84;5002496;28;102917;-67
2021/05/27 06:58:18;;;;;;;6.93;6.32;;;;;;;19.24;63.03;101280.34;5001799;28;102880;-69
2021/05/27 07:00:45;;;;;;;7.22;6.60;;;;;;;19.25;62.73;101287.47;4994752;28;102161;-69
2021/05/27 07:03:16;;;;;;;7.57;6.55;;;;;;;19.28;63.31;101281.31;4993469;28;104166;-69
2021/05/27 07:05:42;;;;;;;11.38;6.90;;;;;;;19.30;62.71;101281.84;4987003;28;102120;-68
2021/05/27 07:08:09;;;;;;;12.57;6.43;;;;;;;19.32;63.32;101281.50;5000931;28;102586;-68
2021/05/27 07:10:36;;;;;;;13.40;6.75;;;;;;;19.39;62.87;101290.16;4986862;28;103636;-69
2021/05/27 07:13:04;;;;;;;16.75;7.00;;;;;;;19.51;63.17;101284.03;4991049;28;104034;-68
2021/05/27 07:15:31;;;;;;;19.02;6.38;;;;;;;19.64;62.94;101274.88;4992684;28;102277;-68
2021/05/27 07:17:58;;;;;;;21.95;7.15;;;;;;;19.69;63.19;101271.97;4983446;28;102107;-68
2021/05/27 07:20:27;;;;;;;40.80;9.00;;;;;;;19.74;63.09;101271.81;5000987;28;103990;-67
2021/05/27 07:22:54;;;;;;;24.10;7.18;;;;;;;19.75;62.81;101265.16;4990533;28;103940;-67
2021/05/27 07:25:23;;;;;;;18.25;7.10;;;;;;;19.84;62.58;101263.25;4984020;28;102351;-68
2021/05/27 07:27:51;;;;;;;19.23;6.43;;;;;;;19.83;62.52;101261.59;4998194;28;102577;-68
2021/05/27 07:30:19;;;;;;;23.90;7.35;;;;;;;19.89;61.95;101260.31;4984062;28;102755;-67
2021/05/27 07:32:46;;;;;;;34.00;8.73;;;;;;;19.99;61.77;101252.88;4992704;28;104047;-67
2021/05/27 07:35:14;;;;;;;22.05;7.07;;;;;;;20.18;60.77;101267.22;4991170;28;103484;-67
2021/05/27 07:37:42;;;;;;;15.77;7.47;;;;;;;20.13;60.62;101264.63;4994813;28;103358;-67
2021/05/27 07:40:09;;;;;;;11.88;7.35;;;;;;;20.12;59.98;101257.44;4994049;28;102526;-67
2021/05/27 07:42:36;;;;;;;12.00;7.40;;;;;;;20.14;59.36;101266.22;4988093;28;103748;-67
2021/05/27 07:45:05;;;;;;;10.75;6.68;;;;;;;20.11;59.68;101261.34;4993534;28;102707;-67
2021/05/27 07:47:32;;;;;;;12.48;7.43;;;;;;;20.12;59.52;101263.81;4994596;28;104283;-67
2021/05/27 07:50:02;;;;;;;14.82;6.95;;;;;;;20.18;58.57;101261.69;4996955;28;102622;-67
2021/05/27 07:52:29;;;;;;;16.45;8.55;;;;;;;20.21;59.29;101266.56;4993146;28;104005;-67
2021/05/27 07:54:56;;;;;;;12.07;6.55;;;;;;;20.29;58.90;101257.47;4991448;28;102622;-66
2021/05/27 07:57:23;;;;;;;8.90;6.30;;;;;;;20.33;59.12;101261.22;4999193;28;102429;-66
2021/05/27 07:59:51;;;;;;;11.15;6.68;;;;;;;20.33;58.32;101272.25;4995418;28;103753;-67
2021/05/27 08:02:17;;;;;;;11.13;6.90;;;;;;;20.26;58.48;101257.31;4997637;28;105164;-66
2021/05/27 08:04:44;;;;;;;8.68;6.07;;;;;;;20.36;57.83;101257.00;4995748;28;102624;-66
2021/05/27 08:07:13;;;;;;;10.48;6.15;;;;;;;20.46;56.92;101267.72;4985328;28;102185;-67
2021/05/27 08:09:40;;;;;;;7.53;4.72;;;;;;;20.32;56.56;101258.78;4989678;28;102543;-67
2021/05/27 08:12:08;;;;;;;51.30;8.45;;;;;;;20.32;57.07;101264.31;4997179;28;104078;-66
2021/05/27 08:14:35;;;;;;;24.25;7.13;;;;;;;20.37;57.69;101264.13;4993688;28;102841;-66
2021/05/27 08:17:02;;;;;;;17.67;7.22;;;;;;;20.40;57.67;101252.44;4984186;28;102870;-66
2021/05/27 08:19:28;;;;;;;16.90;6.68;;;;;;;20.43;58.25;101262.84;4997343;28;102427;-67
2021/05/27 08:21:55;;;;;;;15.13;6.53;;;;;;;20.39;58.31;101257.16;4999671;28;103882;-66
2021/05/27 08:24:21;;;;;;;12.30;6.00;;;;;;;20.54;58.04;101252.31;4995957;28;103080;-67
2021/05/27 08:26:49;;;;;;;8.02;5.95;;;;;;;20.47;57.99;101250.00;4994120;28;102738;-66
2021/05/27 08:29:16;;;;;;;8.52;5.38;;;;;;;20.46;58.58;101258.63;4988533;28;103026;-66
2021/05/27 08:31:42;;;;;;;7.70;4.97;;;;;;;20.57;57.15;101254.44;4997189;28;103737;-67
2021/05/27 08:34:10;;;;;;;10.65;5.50;;;;;;;20.66;57.52;101265.47;4997436;28;102520;-66
2021/05/27 08:36:37;;;;;;;5.82;5.13;;;;;;;20.50;57.69;101263.22;4984559;28;102575;-66
2021/05/27 08:39:06;;;;;;;5.75;4.90;;;;;;;20.50;56.85;101271.50;4986123;28;102739;-67
2021/05/27 08:41:33;;;;;;;4.82;4.32;;;;;;;20.45;56.92;101259.75;4991002;28;104355;-67
2021/05/27 08:44:02;;;;;;;8.90;4.93;;;;;;;20.58;57.42;101259.63;4994007;28;102676;-66
2021/05/27 08:46:29;;;;;;;14.20;4.97;;;;;;;20.59;56.89;101261.28;4993694;28;102719;-66
2021/05/27 08:48:56;;;;;;;17.75;5.57;;;;;;;20.49;57.50;101266.28;4990209;28;102728;-67
2021/05/27 08:51:24;;;;;;;9.60;4.72;;;;;;;20.56;56.90;101264.69;4991436;28;104476;-66
2021/05/27 08:53:50;;;;;;;11.60;5.00;;;;;;;20.59;57.08;101263.19;4995363;28;103051;-66
2021/05/27 08:56:17;;;;;;;10.18;4.43;;;;;;;20.67;56.19;101258.81;4993737;28;102604;-67
2021/05/27 08:58:43;;;;;;;4.63;3.67;;;;;;;20.62;55.97;101262.53;5001635;28;102738;-66
2021/05/27 09:01:11;;;;;;;8.02;4.30;;;;;;;20.73;54.90;101266.59;4997871;28;103665;-67
2021/05/27 09:03:38;;;;;;;8.98;4.50;;;;;;;20.71;54.60;101263.38;4976054;28;102195;-66
2021/05/27 09:06:05;;;;;;;5.90;4.28;;;;;;;20.67;55.27;101267.94;4988715;28;102625;-67
2021/05/27 09:08:34;;;;;;;8.43;4.00;;;;;;;20.62;55.84;101259.78;4997785;28;102181;-67
2021/05/27 09:11:02;;;;;;;5.20;3.63;;;;;;;20.62;55.61;101251.47;5009841;28;104075;-67
2021/05/27 09:13:29;;;;;;;9.13;4.18;;;;;;;20.64;56.31;101258.31;4995426;28;102722;-67
2021/05/27 09:16:05;;;;;;;9.82;3.95;;;;;;;20.59;56.39;101265.97;5005009;28;102556;-66
2021/05/27 09:18:34;;;;;;;5.90;4.05;;;;;;;20.52;56.28;101249.03;5002161;28;102620;-66
2021/05/27 09:21:04;;;;;;;7.05;3.88;;;;;;;20.61;56.55;101249.88;4997529;28;104038;-66
2021/05/27 09:23:30;;;;;;;6.97;4.03;;;;;;;20.73;56.17;101254.72;5008532;28;102195;-66
2021/05/27 09:26:06;;;;;;;7.68;4.30;;;;;;;20.69;55.93;101254.56;5000751;28;102228;-67
2021/05/27 09:28:34;;;;;;;8.35;4.80;;;;;;;20.57;56.00;101240.59;4995521;28;102575;-66
2021/05/27 09:31:03;;;;;;;6.10;3.85;;;;;;;20.54;57.05;101247.59;5001901;28;103061;-67
2021/05/27 09:33:34;;;;;;;3.53;3.22;;;;;;;20.56;57.37;101239.00;4997793;28;102379;-67
2021/05/27 09:36:04;;;;;;;7.10;3.70;;;;;;;20.57;57.11;101240.59;4994996;28;103522;-66
2021/05/27 09:38:32;;;;;;;6.07;3.90;;;;;;;20.46;57.60;101236.50;4987109;28;102279;-67
2021/05/27 09:40:59;;;;;;;7.33;3.83;;;;;;;20.48;57.46;101231.47;4992536;28;103922;-68
2021/05/27 09:43:29;;;;;;;7.35;3.95;;;;;;;20.70;58.07;101227.72;4978294;28;102362;-68
2021/05/27 09:46:01;;;;;;;8.57;4.13;;;;;;;20.75;57.65;101225.63;4987727;28;103188;-63
2021/05/27 09:48:28;;;;;;;8.10;4.20;;;;;;;20.70;57.63;101225.78;4978015;28;102986;-65
2021/05/27 09:50:56;;;;;;;17.35;4.25;;;;;;;20.73;56.09;101221.53;5001745;28;103557;-66
2021/05/27 09:53:26;;;;;;;13.00;3.90;;;;;;;20.82;54.66;101219.59;4995829;28;102638;-65
2021/05/27 09:56:01;;;;;;;8.02;3.50;;;;;;;20.70;55.70;101205.59;4993408;28;104882;-66
2021/05/27 09:58:27;;;;;;;3.63;3.30;;;;;;;20.78;55.25;101202.84;4995322;28;102278;-65
2021/05/27 10:00:55;;;;;;;7.80;3.50;;;;;;;20.86;55.24;101210.28;4986319;28;103730;-65
2021/05/27 10:03:27;;;;;;;3.95;3.28;;;;;;;20.76;55.33;101210.63;4992408;28;102867;-65
2021/05/27 10:05:57;;;;;;;4.35;3.20;;;;;;;21.00;54.51;101206.53;4996823;28;105161;-65
2021/05/27 10:08:24;;;;;;;4.10;3.40;;;;;;;20.99;55.06;101200.19;4995100;28;102626;-65
2021/05/27 10:10:51;;;;;;;6.40;3.60;;;;;;;20.99;54.86;101199.34;4988979;28;103911;-65
2021/05/27 10:13:28;;;;;;;7.00;3.55;;;;;;;20.92;55.60;101207.38;4997906;28;103455;-65
2021/05/27 10:15:54;;;;;;;9.60;4.07;;;;;;;20.76;55.85;101205.09;4981691;28;102841;-65
2021/05/27 10:18:22;;;;;;;3.63;3.00;;;;;;;20.81;55.45;101202.19;5001479;28;103302;-65
2021/05/27 10:20:50;;;;;;;4.57;3.50;;;;;;;20.93;54.86;101203.44;4991169;28;104074;-65
2021/05/27 10:23:18;;;;;;;6.82;3.20;;;;;;;20.88;55.47;101187.84;4957925;28;102553;-65
2021/05/27 10:25:46;;;;;;;5.65;3.42;;;;;;;20.95;55.66;101198.38;4986604;28;102794;-65
2021/05/27 10:28:16;;;;;;;4.90;3.43;;;;;;;20.72;55.03;101197.81;5005000;28;102628;-65
2021/05/27 10:30:44;;;;;;;3.55;3.20;;;;;;;20.88;54.15;101202.50;4995843;28;103931;-65
2021/05/27 10:33:21;;;;;;;5.28;3.05;;;;;;;20.81;54.97;101196.66;4989667;28;102462;-65
2021/05/27 10:35:54;;;;;;;6.18;3.25;;;;;;;20.88;53.34;101194.19;4980782;28;104643;-66
2021/05/27 10:38:50;;;;;;;4.50;3.50;;;;;;;20.83;53.68;101194.34;4997588;28;102472;-66
2021/05/27 10:41:19;;;;;;;4.53;3.30;;;;;;;20.87;53.30;101187.00;4975107;28;104244;-66
2021/05/27 10:44:15;;;;;;;6.97;3.20;;;;;;;20.79;53.74;101190.63;4999842;28;104351;-65
2021/05/27 10:47:17;;;;;;;6.25;3.47;;;;;;;20.75;54.21;101180.56;4999647;28;102251;-65
2021/05/27 10:49:50;;;;;;;4.80;3.43;;;;;;;20.92;54.54;101185.25;4997398;28;102280;-65
2021/05/27 10:52:41;;;;;;;10.75;3.60;;;;;;;21.03;54.59;101169.91;4989811;28;103911;-64
2021/05/27 10:55:40;;;;;;;7.47;3.60;;;;;;;21.00;54.72;101173.31;5000337;28;102512;-65
2021/05/27 10:58:08;;;;;;;7.57;3.55;;;;;;;20.95;54.77;101173.47;4996352;28;102329;-65
2021/05/27 11:00:52;;;;;;;4.50;3.30;;;;;;;20.95;54.47;101159.66;4995893;28;102973;-65
2021/05/27 11:03:49;;;;;;;4.20;3.30;;;;;;;21.28;54.61;101152.38;4983564;28;103208;-64
2021/05/27 11:06:28;;;;;;;5.47;3.40;;;;;;;21.18;54.55;101155.50;4956649;28;102898;-65
2021/05/27 11:09:31;;;;;;;5.50;3.55;;;;;;;20.84;55.88;101154.50;4987203;28;102248;-65
2021/05/27 11:12:10;;;;;;;8.10;3.65;;;;;;;20.90;55.90;101157.06;4980419;28;102841;-66
2021/05/27 11:14:44;;;;;;;6.20;3.85;;;;;;;20.85;56.04;101163.59;4997821;28;102722;-66
2021/05/27 11:19:56;;;;;;;6.88;3.78;;;;;;;21.11;55.17;101144.13;4996002;28;102387;-65
2021/05/27 11:23:01;;;;;;;8.00;3.63;;;;;;;21.40;55.46;101135.06;4996588;28;102786;-65
2021/05/27 11:25:31;;;;;;;6.15;3.38;;;;;;;21.58;56.08;101139.34;4993222;28;104056;-66
2021/05/27 11:28:24;;;;;;;6.20;3.60;;;;;;;21.32;56.14;101142.25;4999244;28;102528;-64
2021/05/27 11:30:56;;;;;;;5.60;3.40;;;;;;;21.00;56.60;101140.13;4993058;28;103228;-65
2021/05/27 11:33:40;;;;;;;4.35;3.05;;;;;;;20.88;55.96;101129.75;4989129;28;102408;-65
2021/05/27 11:36:25;;;;;;;4.78;3.58;;;;;;;20.95;56.19;101131.97;4990512;28;104132;-65
2021/05/27 11:38:54;;;;;;;6.15;3.15;;;;;;;21.01;54.85;101127.91;4975416;28;103907;-65